sensor_id;sensor_type;location;lat;lon;timestamp;pressure;altitude;pressure_sealevel;temperature;humidity
36304;BME280;22335;49.800;8.596;2023-12-22T00:00:00;99195.78;;;9.28;66.55
36304;BME280;22335;49.800;8.596;2023-12-22T00:06:45;99180.22;;;9.29;66.72
36304;BME280;22335;49.800;8.596;2023-12-22T00:13:30;99172.59;;;9.17;66.45
36304;BME280;22335;49.800;8.596;2023-12-22T00:20:16;99179.88;;;9.08;66.34
36304;BME280;22335;49.800;8.596;2023-12-22T00:27:00;99212.28;;;9.09;67.05
36304;BME280;22335;49.800;8.596;2023-12-22T00:33:44;99188.84;;;9.08;66.62
36304;BME280;22335;49.800;8.596;2023-12-22T00:40:30;99194.78;;;9.24;66.55
36304;BME280;22335;49.800;8.596;2023-12-22T00:47:13;99173.94;;;9.28;66.50
36304;BME280;22335;49.800;8.596;2023-12-22T00:53:56;99177.78;;;9.63;66.57
36304;BME280;22335;49.800;8.596;2023-12-22T01:00:42;99157.25;;;9.88;66.28
36304;BME280;22335;49.800;8.596;2023-12-22T01:07:25;99199.88;;;9.76;65.85
36304;BME280;22335;49.800;8.596;2023-12-22T01:14:09;99198.69;;;9.90;66.03
36304;BME280;22335;49.800;8.596;2023-12-22T01:20:55;99228.53;;;9.64;66.51
36304;BME280;22335;49.800;8.596;2023-12-22T01:27:39;99212.59;;;9.44;66.95
36304;BME280;22335;49.800;8.596;2023-12-22T01:34:22;99224.69;;;9.29;66.68
36304;BME280;22335;49.800;8.596;2023-12-22T01:41:07;99215.06;;;9.45;66.89
36304;BME280;22335;49.800;8.596;2023-12-22T01:47:51;99235.69;;;9.74;66.35
36304;BME280;22335;49.800;8.596;2023-12-22T01:54:35;99271.25;;;10.05;66.14
36304;BME280;22335;49.800;8.596;2023-12-22T02:01:20;99316.22;;;10.22;66.02
36304;BME280;22335;49.800;8.596;2023-12-22T02:08:06;99269.47;;;10.01;66.16
36304;BME280;22335;49.800;8.596;2023-12-22T02:14:50;99217.09;;;9.40;66.51
36304;BME280;22335;49.800;8.596;2023-12-22T02:21:35;99257.09;;;9.81;66.63
36304;BME280;22335;49.800;8.596;2023-12-22T02:28:22;99257.78;;;9.86;66.36
36304;BME280;22335;49.800;8.596;2023-12-22T02:35:10;99255.94;;;9.96;65.97
36304;BME280;22335;49.800;8.596;2023-12-22T02:41:56;99241.13;;;9.97;66.00
36304;BME280;22335;49.800;8.596;2023-12-22T02:48:41;99257.22;;;10.21;66.08
36304;BME280;22335;49.800;8.596;2023-12-22T02:55:25;99265.44;;;10.43;65.88
36304;BME280;22335;49.800;8.596;2023-12-22T03:02:08;99254.50;;;10.43;65.79
36304;BME280;22335;49.800;8.596;2023-12-22T03:08:53;99261.53;;;10.35;66.19
36304;BME280;22335;49.800;8.596;2023-12-22T03:15:37;99275.19;;;10.35;66.12
36304;BME280;22335;49.800;8.596;2023-12-22T03:22:20;99261.47;;;10.27;66.06
36304;BME280;22335;49.800;8.596;2023-12-22T03:29:05;99236.94;;;10.13;66.44
36304;BME280;22335;49.800;8.596;2023-12-22T03:35:48;99206.00;;;9.81;66.60
36304;BME280;22335;49.800;8.596;2023-12-22T03:42:32;99273.25;;;10.13;66.49
36304;BME280;22335;49.800;8.596;2023-12-22T04:04:19;99268.41;;;9.52;66.54
36304;BME280;22335;49.800;8.596;2023-12-22T04:11:04;99211.06;;;9.15;66.53
36304;BME280;22335;49.800;8.596;2023-12-22T04:17:48;99238.13;;;9.26;66.56
36304;BME280;22335;49.800;8.596;2023-12-22T04:24:33;99287.81;;;9.50;66.06
36304;BME280;22335;49.800;8.596;2023-12-22T04:31:16;99283.75;;;9.47;66.36
36304;BME280;22335;49.800;8.596;2023-12-22T04:38:00;99291.75;;;9.58;65.91
36304;BME280;22335;49.800;8.596;2023-12-22T04:44:44;99286.56;;;9.70;66.32
36304;BME280;22335;49.800;8.596;2023-12-22T04:51:28;99281.47;;;9.77;66.04
36304;BME280;22335;49.800;8.596;2023-12-22T04:58:11;99282.06;;;9.88;66.24
36304;BME280;22335;49.800;8.596;2023-12-22T05:04:56;99273.00;;;10.01;65.94
36304;BME280;22335;49.800;8.596;2023-12-22T05:11:40;99289.31;;;10.15;65.91
36304;BME280;22335;49.800;8.596;2023-12-22T05:18:25;99302.91;;;10.06;65.96
36304;BME280;22335;49.800;8.596;2023-12-22T05:25:12;99337.78;;;9.87;65.74
36304;BME280;22335;49.800;8.596;2023-12-22T05:31:56;99322.38;;;9.55;66.11
36304;BME280;22335;49.800;8.596;2023-12-22T05:38:40;99354.16;;;9.87;66.29
36304;BME280;22335;49.800;8.596;2023-12-22T05:45:24;99319.91;;;9.81;65.81
36304;BME280;22335;49.800;8.596;2023-12-22T05:52:08;99332.06;;;10.11;65.78
36304;BME280;22335;49.800;8.596;2023-12-22T05:58:52;99343.06;;;10.20;65.80
36304;BME280;22335;49.800;8.596;2023-12-22T06:05:37;99347.56;;;10.38;65.52
36304;BME280;22335;49.800;8.596;2023-12-22T06:12:21;99357.31;;;10.53;65.51
36304;BME280;22335;49.800;8.596;2023-12-22T06:19:04;99375.19;;;10.59;65.48
36304;BME280;22335;49.800;8.596;2023-12-22T06:25:49;99362.03;;;10.38;65.59
36304;BME280;22335;49.800;8.596;2023-12-22T06:32:33;99392.03;;;10.52;65.61
36304;BME280;22335;49.800;8.596;2023-12-22T06:39:21;99410.81;;;10.45;65.78
36304;BME280;22335;49.800;8.596;2023-12-22T06:46:14;99414.66;;;10.44;66.07
36304;BME280;22335;49.800;8.596;2023-12-22T06:52:58;99394.66;;;10.35;66.10
36304;BME280;22335;49.800;8.596;2023-12-22T06:59:44;99402.94;;;10.44;65.63
36304;BME280;22335;49.800;8.596;2023-12-22T07:06:32;99401.38;;;10.51;65.50
36304;BME280;22335;49.800;8.596;2023-12-22T07:13:16;99370.50;;;10.51;65.30
36304;BME280;22335;49.800;8.596;2023-12-22T07:19:59;99403.28;;;10.73;65.33
36304;BME280;22335;49.800;8.596;2023-12-22T07:26:45;99402.50;;;10.73;65.66
36304;BME280;22335;49.800;8.596;2023-12-22T07:33:29;99411.75;;;10.85;65.63
36304;BME280;22335;49.800;8.596;2023-12-22T07:40:12;99425.94;;;10.88;65.62
36304;BME280;22335;49.800;8.596;2023-12-22T07:46:58;99437.97;;;10.87;65.56
36304;BME280;22335;49.800;8.596;2023-12-22T07:53:42;99443.94;;;10.89;65.50
36304;BME280;22335;49.800;8.596;2023-12-22T08:00:26;99429.91;;;10.81;65.37
36304;BME280;22335;49.800;8.596;2023-12-22T08:07:11;99434.81;;;10.93;64.96
36304;BME280;22335;49.800;8.596;2023-12-22T08:13:55;99442.06;;;10.98;64.92
36304;BME280;22335;49.800;8.596;2023-12-22T08:20:38;99427.41;;;10.94;64.97
36304;BME280;22335;49.800;8.596;2023-12-22T08:27:23;99442.59;;;11.00;64.87
36304;BME280;22335;49.800;8.596;2023-12-22T08:34:07;99400.03;;;10.63;64.69
36304;BME280;22335;49.800;8.596;2023-12-22T08:40:50;99441.72;;;10.91;65.32
36304;BME280;22335;49.800;8.596;2023-12-22T08:47:35;99432.88;;;10.94;65.17
36304;BME280;22335;49.800;8.596;2023-12-22T08:54:19;99444.28;;;10.87;65.45
36304;BME280;22335;49.800;8.596;2023-12-22T09:01:02;99452.00;;;10.71;65.54
36304;BME280;22335;49.800;8.596;2023-12-22T09:07:47;99460.84;;;10.68;65.63
36304;BME280;22335;49.800;8.596;2023-12-22T09:14:30;99458.06;;;10.82;65.81
36304;BME280;22335;49.800;8.596;2023-12-22T09:21:14;99461.22;;;10.98;65.60
36304;BME280;22335;49.800;8.596;2023-12-22T09:27:59;99454.50;;;11.04;65.65
36304;BME280;22335;49.800;8.596;2023-12-22T09:34:43;99448.91;;;11.09;65.73
36304;BME280;22335;49.800;8.596;2023-12-22T09:41:26;99461.53;;;11.19;65.53
36304;BME280;22335;49.800;8.596;2023-12-22T09:48:12;99450.75;;;11.22;65.61
36304;BME280;22335;49.800;8.596;2023-12-22T09:54:58;99443.91;;;11.34;65.55
36304;BME280;22335;49.800;8.596;2023-12-22T10:01:43;99451.34;;;11.42;65.55
36304;BME280;22335;49.800;8.596;2023-12-22T10:08:30;99435.28;;;11.49;65.07
36304;BME280;22335;49.800;8.596;2023-12-22T10:15:14;99410.91;;;11.39;65.54
36304;BME280;22335;49.800;8.596;2023-12-22T10:22:00;99424.31;;;11.49;65.93
36304;BME280;22335;49.800;8.596;2023-12-22T10:28:46;99402.88;;;11.51;65.77
36304;BME280;22335;49.800;8.596;2023-12-22T10:35:30;99402.59;;;11.61;65.78
36304;BME280;22335;49.800;8.596;2023-12-22T10:42:14;99383.63;;;11.65;65.52
36304;BME280;22335;49.800;8.596;2023-12-22T10:48:59;99376.69;;;11.67;65.84
36304;BME280;22335;49.800;8.596;2023-12-22T10:55:43;99358.50;;;11.71;65.71
36304;BME280;22335;49.800;8.596;2023-12-22T11:02:32;99355.13;;;11.74;65.61
36304;BME280;22335;49.800;8.596;2023-12-22T11:09:21;99343.53;;;11.77;65.51
36304;BME280;22335;49.800;8.596;2023-12-22T11:16:08;99284.69;;;11.49;65.65
36304;BME280;22335;49.800;8.596;2023-12-22T11:22:53;99315.63;;;11.75;65.86
36304;BME280;22335;49.800;8.596;2023-12-22T11:29:40;99302.44;;;11.77;65.75
36304;BME280;22335;49.800;8.596;2023-12-22T11:36:24;99246.50;;;11.61;65.89
36304;BME280;22335;49.800;8.596;2023-12-22T11:43:09;99270.22;;;11.92;65.56
36304;BME280;22335;49.800;8.596;2023-12-22T11:49:55;99276.69;;;11.96;65.76
36304;BME280;22335;49.800;8.596;2023-12-22T11:56:39;99289.75;;;11.99;65.70
36304;BME280;22335;49.800;8.596;2023-12-22T12:03:22;99281.19;;;12.00;65.88
36304;BME280;22335;49.800;8.596;2023-12-22T12:10:08;99259.41;;;12.04;66.30
36304;BME280;22335;49.800;8.596;2023-12-22T12:16:55;99246.69;;;12.08;66.49
36304;BME280;22335;49.800;8.596;2023-12-22T12:23:42;99228.94;;;12.14;66.28
36304;BME280;22335;49.800;8.596;2023-12-22T12:30:29;99207.19;;;12.18;66.54
36304;BME280;22335;49.800;8.596;2023-12-22T12:37:13;99201.84;;;12.21;66.62
36304;BME280;22335;49.800;8.596;2023-12-22T12:43:58;99219.09;;;12.22;66.78
36304;BME280;22335;49.800;8.596;2023-12-22T12:50:44;99175.31;;;11.96;67.15
36304;BME280;22335;49.800;8.596;2023-12-22T12:57:27;99213.75;;;12.17;67.45
36304;BME280;22335;49.800;8.596;2023-12-22T13:04:11;99201.34;;;12.19;67.45
36304;BME280;22335;49.800;8.596;2023-12-22T13:11:01;99199.41;;;12.29;67.42
36304;BME280;22335;49.800;8.596;2023-12-22T13:17:45;99195.19;;;12.31;67.82
36304;BME280;22335;49.800;8.596;2023-12-22T13:24:29;99212.00;;;12.30;67.64
36304;BME280;22335;49.800;8.596;2023-12-22T13:31:14;99217.28;;;12.35;67.88
36304;BME280;22335;49.800;8.596;2023-12-22T13:37:59;99212.78;;;12.39;67.76
36304;BME280;22335;49.800;8.596;2023-12-22T13:44:44;99221.47;;;12.41;67.63
36304;BME280;22335;49.800;8.596;2023-12-22T13:51:39;99166.25;;;12.04;68.22
36304;BME280;22335;49.800;8.596;2023-12-22T13:58:24;99241.13;;;12.43;68.05
36304;BME280;22335;49.800;8.596;2023-12-22T14:05:08;99252.41;;;12.50;68.27
36304;BME280;22335;49.800;8.596;2023-12-22T14:11:53;99241.91;;;12.52;68.08
36304;BME280;22335;49.800;8.596;2023-12-22T14:18:37;99241.72;;;12.57;67.75
36304;BME280;22335;49.800;8.596;2023-12-22T14:25:21;99235.75;;;12.64;67.98
36304;BME280;22335;49.800;8.596;2023-12-22T14:32:08;99245.72;;;12.68;67.55
36304;BME280;22335;49.800;8.596;2023-12-22T14:38:52;99231.22;;;12.68;67.86
36304;BME280;22335;49.800;8.596;2023-12-22T14:45:36;99238.31;;;12.69;67.55
36304;BME280;22335;49.800;8.596;2023-12-22T14:52:21;99236.69;;;12.77;67.18
36304;BME280;22335;49.800;8.596;2023-12-22T14:59:05;99243.44;;;12.79;67.39
36304;BME280;22335;49.800;8.596;2023-12-22T15:05:50;99250.69;;;12.84;66.81
36304;BME280;22335;49.800;8.596;2023-12-22T15:12:35;99262.59;;;12.88;66.39
36304;BME280;22335;49.800;8.596;2023-12-22T15:19:22;99279.91;;;12.88;66.48
36304;BME280;22335;49.800;8.596;2023-12-22T15:26:06;99274.97;;;12.64;66.11
36304;BME280;22335;49.800;8.596;2023-12-22T15:32:50;99300.59;;;12.68;66.07
36304;BME280;22335;49.800;8.596;2023-12-22T15:39:34;99311.91;;;12.67;66.14
36304;BME280;22335;49.800;8.596;2023-12-22T15:46:17;99316.91;;;12.74;66.14
36304;BME280;22335;49.800;8.596;2023-12-22T15:53:04;99311.56;;;12.77;65.56
36304;BME280;22335;49.800;8.596;2023-12-22T15:59:48;99324.78;;;12.75;65.61
36304;BME280;22335;49.800;8.596;2023-12-22T16:06:32;99328.16;;;12.81;65.60
36304;BME280;22335;49.800;8.596;2023-12-22T16:13:17;99338.63;;;12.87;65.72
36304;BME280;22335;49.800;8.596;2023-12-22T16:20:00;99330.53;;;12.91;65.31
36304;BME280;22335;49.800;8.596;2023-12-22T16:26:43;99342.50;;;12.95;65.26
36304;BME280;22335;49.800;8.596;2023-12-22T16:33:28;99340.69;;;12.99;65.36
36304;BME280;22335;49.800;8.596;2023-12-22T16:40:12;99279.97;;;12.62;65.23
36304;BME280;22335;49.800;8.596;2023-12-22T16:46:56;99337.31;;;13.02;65.18
36304;BME280;22335;49.800;8.596;2023-12-22T16:53:41;99334.06;;;13.00;64.95
36304;BME280;22335;49.800;8.596;2023-12-22T17:00:24;99332.47;;;12.99;65.10
36304;BME280;22335;49.800;8.596;2023-12-22T17:07:08;99337.31;;;13.02;64.85
36304;BME280;22335;49.800;8.596;2023-12-22T17:13:53;99356.34;;;13.07;64.62
36304;BME280;22335;49.800;8.596;2023-12-22T17:20:36;99361.22;;;13.02;64.97
36304;BME280;22335;49.800;8.596;2023-12-22T17:27:21;99377.69;;;13.02;65.19
36304;BME280;22335;49.800;8.596;2023-12-22T17:34:06;99381.06;;;12.99;64.60
36304;BME280;22335;49.800;8.596;2023-12-22T17:40:50;99391.41;;;13.02;64.84
36304;BME280;22335;49.800;8.596;2023-12-22T17:47:33;99393.66;;;13.00;64.79
36304;BME280;22335;49.800;8.596;2023-12-22T17:54:19;99402.22;;;12.98;64.84
36304;BME280;22335;49.800;8.596;2023-12-22T18:01:03;99398.19;;;12.96;64.80
36304;BME280;22335;49.800;8.596;2023-12-22T18:07:46;99390.28;;;12.94;64.55
36304;BME280;22335;49.800;8.596;2023-12-22T18:14:31;99382.72;;;12.82;64.56
36304;BME280;22335;49.800;8.596;2023-12-22T18:21:15;99417.25;;;12.92;64.34
36304;BME280;22335;49.800;8.596;2023-12-22T18:27:58;99435.97;;;12.99;64.22
36304;BME280;22335;49.800;8.596;2023-12-22T18:34:43;99474.06;;;13.00;64.46
36304;BME280;22335;49.800;8.596;2023-12-22T18:41:27;99409.69;;;12.63;64.32
36304;BME280;22335;49.800;8.596;2023-12-22T18:48:10;99486.34;;;13.03;64.31
36304;BME280;22335;49.800;8.596;2023-12-22T18:54:55;99464.72;;;12.84;64.66
36304;BME280;22335;49.800;8.596;2023-12-22T19:01:39;99472.94;;;13.01;64.82
36304;BME280;22335;49.800;8.596;2023-12-22T19:08:24;99471.66;;;12.90;64.90
36304;BME280;22335;49.800;8.596;2023-12-22T19:15:09;99427.78;;;12.55;65.49
36304;BME280;22335;49.800;8.596;2023-12-22T19:21:52;99486.66;;;12.75;65.26
36304;BME280;22335;49.800;8.596;2023-12-22T19:28:35;99508.78;;;12.79;65.54
36304;BME280;22335;49.800;8.596;2023-12-22T19:35:20;99518.47;;;12.85;65.37
36304;BME280;22335;49.800;8.596;2023-12-22T19:42:04;99508.97;;;12.82;65.48
36304;BME280;22335;49.800;8.596;2023-12-22T19:48:49;99504.25;;;12.65;65.47
36304;BME280;22335;49.800;8.596;2023-12-22T19:55:34;99527.84;;;12.84;65.33
36304;BME280;22335;49.800;8.596;2023-12-22T20:02:21;99524.44;;;12.87;65.10
36304;BME280;22335;49.800;8.596;2023-12-22T20:09:07;99543.50;;;12.92;64.95
36304;BME280;22335;49.800;8.596;2023-12-22T20:15:52;99556.72;;;12.90;64.53
36304;BME280;22335;49.800;8.596;2023-12-22T20:22:36;99550.28;;;12.86;64.74
36304;BME280;22335;49.800;8.596;2023-12-22T20:29:20;99567.84;;;12.85;64.75
36304;BME280;22335;49.800;8.596;2023-12-22T20:36:05;99577.09;;;12.89;64.52
36304;BME280;22335;49.800;8.596;2023-12-22T20:42:49;99579.34;;;12.87;64.55
36304;BME280;22335;49.800;8.596;2023-12-22T20:49:32;99597.25;;;12.84;64.67
36304;BME280;22335;49.800;8.596;2023-12-22T20:56:21;99612.75;;;12.80;64.39
36304;BME280;22335;49.800;8.596;2023-12-22T21:03:06;99617.72;;;12.69;64.38
36304;BME280;22335;49.800;8.596;2023-12-22T21:09:49;99564.22;;;12.32;64.72
36304;BME280;22335;49.800;8.596;2023-12-22T21:16:34;99618.34;;;12.58;65.13
36304;BME280;22335;49.800;8.596;2023-12-22T21:23:18;99640.63;;;12.65;64.67
36304;BME280;22335;49.800;8.596;2023-12-22T21:30:01;99611.22;;;12.48;65.13
36304;BME280;22335;49.800;8.596;2023-12-22T21:36:47;99655.19;;;12.74;64.96
36304;BME280;22335;49.800;8.596;2023-12-22T21:43:33;99648.72;;;12.79;64.36
36304;BME280;22335;49.800;8.596;2023-12-22T21:50:16;99656.00;;;12.83;64.35
36304;BME280;22335;49.800;8.596;2023-12-22T21:57:01;99657.63;;;12.84;64.03
36304;BME280;22335;49.800;8.596;2023-12-22T22:03:46;99666.97;;;12.75;64.27
36304;BME280;22335;49.800;8.596;2023-12-22T22:10:30;99671.81;;;12.78;64.68
36304;BME280;22335;49.800;8.596;2023-12-22T22:17:15;99672.63;;;12.78;64.47
36304;BME280;22335;49.800;8.596;2023-12-22T22:23:58;99686.69;;;12.85;64.25
36304;BME280;22335;49.800;8.596;2023-12-22T22:30:43;99667.09;;;12.69;64.45
36304;BME280;22335;49.800;8.596;2023-12-22T22:37:28;99702.00;;;12.78;64.39
36304;BME280;22335;49.800;8.596;2023-12-22T22:44:11;99696.16;;;12.71;64.34
36304;BME280;22335;49.800;8.596;2023-12-22T22:50:56;99696.63;;;12.64;64.68
36304;BME280;22335;49.800;8.596;2023-12-22T22:57:40;99714.69;;;12.65;64.52
36304;BME280;22335;49.800;8.596;2023-12-22T23:04:24;99731.22;;;12.74;64.27
36304;BME280;22335;49.800;8.596;2023-12-22T23:11:07;99735.44;;;12.80;64.48
36304;BME280;22335;49.800;8.596;2023-12-22T23:17:52;99739.09;;;12.75;64.16
36304;BME280;22335;49.800;8.596;2023-12-22T23:24:36;99752.66;;;12.72;64.15
36304;BME280;22335;49.800;8.596;2023-12-22T23:31:19;99744.56;;;12.66;64.29
36304;BME280;22335;49.800;8.596;2023-12-22T23:38:05;99761.00;;;12.66;64.27
36304;BME280;22335;49.800;8.596;2023-12-22T23:44:48;99767.13;;;12.63;64.25
36304;BME280;22335;49.800;8.596;2023-12-22T23:51:32;99774.88;;;12.61;64.19
36304;BME280;22335;49.800;8.596;2023-12-22T23:58:17;99784.22;;;12.60;63.87
